createdAt,value
2018-07-03T00:02:30.239Z,24.40
2018-07-03T00:07:33.959Z,24.40
2018-07-03T00:12:38.073Z,24.40
2018-07-03T00:22:44.988Z,24.30
2018-07-03T00:32:52.085Z,24.40
2018-07-03T00:37:55.717Z,24.30
2018-07-03T00:42:59.321Z,24.30
2018-07-03T00:48:02.984Z,24.40
2018-07-03T00:53:06.773Z,24.30
2018-07-03T00:58:10.592Z,24.40
2018-07-03T01:03:14.163Z,24.30
2018-07-03T01:08:17.859Z,24.30
2018-07-03T01:18:25.053Z,24.30
2018-07-03T01:23:28.817Z,24.30
2018-07-03T01:28:32.569Z,24.30
2018-07-03T01:33:36.180Z,24.30
2018-07-03T01:43:43.125Z,24.30
2018-07-03T01:48:46.701Z,24.30
2018-07-03T01:53:50.332Z,24.20
2018-07-03T01:58:54.422Z,24.30
2018-07-03T02:03:58.170Z,24.30
2018-07-03T02:09:01.844Z,24.20
2018-07-03T02:14:05.531Z,24.20
2018-07-03T02:24:12.438Z,24.20
2018-07-03T02:29:16.047Z,24.20
2018-07-03T02:39:23.060Z,24.20
2018-07-03T02:44:26.931Z,24.20
2018-07-03T02:54:34.089Z,24.20
2018-07-03T02:59:37.756Z,24.20
2018-07-03T03:04:41.385Z,24.20
2018-07-03T03:09:44.992Z,24.20
2018-07-03T03:14:48.615Z,24.20
2018-07-03T03:19:52.351Z,24.20
2018-07-03T03:24:55.952Z,24.20
2018-07-03T03:35:03.089Z,24.20
2018-07-03T03:40:07.591Z,24.20
2018-07-03T03:45:11.196Z,24.10
2018-07-03T03:50:14.828Z,24.10
2018-07-03T03:55:18.548Z,24.20
2018-07-03T04:00:22.260Z,24.10
2018-07-03T04:05:25.838Z,24.20
2018-07-03T04:10:29.432Z,24.20
2018-07-03T04:20:36.604Z,24.20
2018-07-03T04:25:40.248Z,24.20
2018-07-03T04:30:43.860Z,24.30
2018-07-03T04:35:47.446Z,24.40
2018-07-03T04:40:51.249Z,24.40
2018-07-03T04:45:55.228Z,24.40
2018-07-03T04:50:59.352Z,24.50
2018-07-03T04:56:02.948Z,24.50
2018-07-03T05:01:07.352Z,24.50
2018-07-03T05:16:17.672Z,24.60
2018-07-03T05:21:21.457Z,24.60
2018-07-03T05:26:25.057Z,24.70
2018-07-03T05:31:28.733Z,24.70
2018-07-03T05:36:32.499Z,24.70
2018-07-03T05:41:36.553Z,24.70
2018-07-03T05:46:40.428Z,24.70
2018-07-03T05:51:44.057Z,24.70
2018-07-03T05:56:47.628Z,24.80
2018-07-03T06:01:51.829Z,24.80
2018-07-03T06:06:55.475Z,24.90
2018-07-03T06:17:02.664Z,24.90
2018-07-03T06:22:06.383Z,24.90
2018-07-03T06:27:10.046Z,24.90
2018-07-03T06:32:13.852Z,24.90
2018-07-03T06:37:17.487Z,24.80
2018-07-03T06:42:21.135Z,24.80
2018-07-03T06:52:28.013Z,24.70
2018-07-03T06:57:31.655Z,24.70
2018-07-03T07:02:35.258Z,24.60
2018-07-03T07:07:38.872Z,24.60
2018-07-03T07:12:42.613Z,24.60
2018-07-03T07:17:46.247Z,24.70
2018-07-03T07:27:53.252Z,24.70
2018-07-03T07:32:56.917Z,24.80
2018-07-03T07:38:00.744Z,24.80
2018-07-03T07:43:04.629Z,24.80
2018-07-03T07:48:08.272Z,24.80
2018-07-03T07:53:11.862Z,24.80
2018-07-03T07:58:15.552Z,24.70
2018-07-03T08:03:19.193Z,24.80
2018-07-03T08:08:22.868Z,24.80
2018-07-03T08:13:26.534Z,24.70
2018-07-03T08:23:33.754Z,24.70
2018-07-03T08:28:37.612Z,24.70
2018-07-03T08:38:44.847Z,24.70
2018-07-03T08:48:51.808Z,24.60
2018-07-03T08:53:55.416Z,24.60
2018-07-03T08:58:59.285Z,24.60
2018-07-03T09:04:02.914Z,24.60
2018-07-03T09:09:08.926Z,24.50
2018-07-03T09:24:19.635Z,24.50
2018-07-03T09:29:23.248Z,24.50
2018-07-03T09:34:26.866Z,24.50
2018-07-03T09:39:30.907Z,24.50
2018-07-03T09:44:34.518Z,24.50
2018-07-03T09:49:38.228Z,24.40
2018-07-03T09:54:41.939Z,24.40
2018-07-03T10:04:48.950Z,24.40
2018-07-03T10:09:52.692Z,24.40
2018-07-03T10:14:56.267Z,24.40
2018-07-03T10:19:59.940Z,24.40
2018-07-03T10:30:07.172Z,24.40
2018-07-03T10:35:10.768Z,24.50
2018-07-03T10:40:14.394Z,24.50
2018-07-03T10:45:18.007Z,24.50
2018-07-03T10:50:21.711Z,24.50
2018-07-03T10:55:25.321Z,24.50
2018-07-03T11:00:29.088Z,24.50
2018-07-03T11:05:32.755Z,24.50
2018-07-03T11:10:36.501Z,24.50
2018-07-03T11:15:40.166Z,24.50
2018-07-03T11:20:43.788Z,24.50
2018-07-03T11:25:47.429Z,24.60
2018-07-03T11:35:54.547Z,24.60
2018-07-03T11:40:58.191Z,24.60
2018-07-03T11:46:01.817Z,24.60
2018-07-03T11:51:05.592Z,24.60
2018-07-03T11:56:09.480Z,24.60
2018-07-03T12:01:13.132Z,24.60
2018-07-03T12:06:16.796Z,24.60
2018-07-03T12:11:20.518Z,24.60
2018-07-03T12:16:24.246Z,24.60
2018-07-03T12:21:28.666Z,24.60
2018-07-03T12:26:32.312Z,24.60
2018-07-03T12:31:35.913Z,24.60
2018-07-03T12:36:39.545Z,24.60
2018-07-03T12:41:43.280Z,24.60
2018-07-03T12:46:46.996Z,24.60
2018-07-03T12:51:50.626Z,24.60
2018-07-03T12:56:54.253Z,24.60
2018-07-03T13:01:58.048Z,24.70
2018-07-03T13:07:01.683Z,24.70
2018-07-03T13:12:05.357Z,24.60
2018-07-03T13:17:09.308Z,24.60
2018-07-03T13:22:12.884Z,24.60
2018-07-03T13:27:16.665Z,24.70
2018-07-03T13:32:20.293Z,24.60
2018-07-03T13:37:24.015Z,24.70
2018-07-03T13:42:27.812Z,24.70
2018-07-03T13:47:31.424Z,24.90
2018-07-03T13:52:34.994Z,25.00
2018-07-03T14:02:42.058Z,25.20
2018-07-03T14:07:45.835Z,25.30
2018-07-03T14:12:49.693Z,25.30
2018-07-03T14:17:53.340Z,25.30
2018-07-03T14:22:57.350Z,25.30
2018-07-03T14:28:01.205Z,25.30
2018-07-03T14:33:04.792Z,25.30
2018-07-03T14:38:08.879Z,25.40
2018-07-03T14:43:12.676Z,25.50
2018-07-03T14:48:16.316Z,25.50
2018-07-03T14:58:23.513Z,25.70
2018-07-03T15:03:27.279Z,25.80
2018-07-03T15:13:34.588Z,25.80
2018-07-03T15:18:43.624Z,25.80
2018-07-03T15:23:47.298Z,25.90
2018-07-03T15:28:51.202Z,25.90
2018-07-03T15:33:55.264Z,25.90
2018-07-03T15:38:58.857Z,25.80
2018-07-03T15:44:13.921Z,25.80
2018-07-03T15:49:18.279Z,25.80
2018-07-03T15:54:21.947Z,25.80
2018-07-03T15:59:26.024Z,25.80
2018-07-03T16:05:06.184Z,25.70
2018-07-03T16:10:10.024Z,25.80
2018-07-03T16:15:13.751Z,26.00
2018-07-03T16:20:23.079Z,26.00
2018-07-03T16:30:30.884Z,26.10
2018-07-03T16:40:27.125Z,26.30
2018-07-03T17:00:43.598Z,26.50
2018-07-03T17:10:51.177Z,26.50
2018-07-03T17:15:55.463Z,26.40
2018-07-03T17:20:59.401Z,26.40
2018-07-03T17:26:03.089Z,26.40
2018-07-03T17:31:07.177Z,26.40
2018-07-03T17:36:11.668Z,26.40
2018-07-03T17:41:26.881Z,26.30
2018-07-03T17:46:30.477Z,26.20
2018-07-03T17:51:34.119Z,26.20
2018-07-03T18:01:41.392Z,26.40
2018-07-03T18:06:45.157Z,26.40
2018-07-03T18:11:48.742Z,26.50
2018-07-03T18:16:52.438Z,26.50
2018-07-03T18:26:59.560Z,26.40
2018-07-03T18:37:06.568Z,26.50
2018-07-03T18:42:10.660Z,26.60
2018-07-03T18:47:14.562Z,26.60
2018-07-03T18:57:21.782Z,26.40
2018-07-03T19:02:25.573Z,26.40
2018-07-03T19:07:29.148Z,26.40
2018-07-03T19:12:33.124Z,26.50
2018-07-03T19:17:36.745Z,26.40
2018-07-03T19:22:40.501Z,26.40
2018-07-03T19:27:44.264Z,26.40
2018-07-03T19:32:48.136Z,26.40
2018-07-03T19:53:38.177Z,26.40
2018-07-03T19:58:41.865Z,26.30
2018-07-03T20:03:46.200Z,26.20
2018-07-03T20:08:49.976Z,26.20
2018-07-03T20:13:53.692Z,26.20
2018-07-03T20:18:58.095Z,26.20
2018-07-03T20:24:02.110Z,26.30
2018-07-03T20:29:05.972Z,26.20
2018-07-03T20:34:10.170Z,26.10
2018-07-03T20:39:14.137Z,26.00
2018-07-03T20:44:17.937Z,26.00
2018-07-03T20:49:21.900Z,25.90
2018-07-03T20:54:25.478Z,25.80
2018-07-03T20:59:30.106Z,25.70
2018-07-03T21:04:34.129Z,25.70
2018-07-03T21:09:38.045Z,25.60
2018-07-03T21:14:42.373Z,25.50
2018-07-03T21:19:46.622Z,25.50
2018-07-03T21:24:50.884Z,25.40
2018-07-03T21:29:55.332Z,25.40
2018-07-03T21:34:59.183Z,25.30
2018-07-03T21:40:02.846Z,25.30
2018-07-03T21:45:07.769Z,25.20
2018-07-03T21:50:11.513Z,25.20
2018-07-03T21:55:15.126Z,25.20
2018-07-03T22:00:23.446Z,25.10
2018-07-03T22:05:27.289Z,25.10
2018-07-03T22:10:31.887Z,25.10
2018-07-03T22:15:35.579Z,25.00
2018-07-03T22:20:39.478Z,25.00
2018-07-03T22:25:44.250Z,25.00
2018-07-03T22:30:47.858Z,25.00
2018-07-03T22:35:51.735Z,24.90
2018-07-03T22:40:55.630Z,24.90
2018-07-03T22:46:00.169Z,24.90
2018-07-03T22:51:04.019Z,24.90
2018-07-03T22:56:07.665Z,24.80
2018-07-03T23:01:11.305Z,24.80
2018-07-03T23:06:14.957Z,24.80
2018-07-03T23:11:18.620Z,24.70
2018-07-03T23:16:23.233Z,24.80
2018-07-03T23:21:26.771Z,24.70
2018-07-03T23:26:30.353Z,24.70
2018-07-03T23:36:37.443Z,24.70
2018-07-03T23:41:43.205Z,24.70
2018-07-03T23:46:58.057Z,24.60
2018-07-03T23:52:12.788Z,24.60
2018-07-03T23:57:27.873Z,24.60
